createdAt,value
2023-05-19T00:01:54.794Z,0.20
2023-05-19T00:04:24.724Z,0.20
2023-05-19T00:07:54.323Z,0.10
2023-05-19T00:10:23.347Z,0.20
2023-05-19T00:13:00.898Z,0.20
2023-05-19T00:15:33.083Z,0.20
2023-05-19T00:18:03.032Z,0.20
2023-05-19T00:20:32.918Z,0.20
2023-05-19T00:23:05.349Z,0.10
2023-05-19T00:25:48.646Z,0.20
2023-05-19T00:28:41.753Z,0.10
2023-05-19T00:31:13.292Z,0.20
2023-05-19T00:34:42.563Z,0.20
2023-05-19T00:37:11.718Z,0.20
2023-05-19T00:39:51.353Z,0.20
2023-05-19T00:42:26.797Z,0.10
2023-05-19T00:44:59.708Z,0.20
2023-05-19T00:47:50.648Z,0.20
2023-05-19T00:50:19.830Z,0.10
2023-05-19T00:52:52.166Z,0.20
2023-05-19T00:55:27.328Z,0.20
2023-05-19T00:57:58.368Z,0.20
2023-05-19T01:00:31.869Z,0.20
2023-05-19T01:03:01.376Z,0.10
2023-05-19T01:05:30.573Z,0.30
2023-05-19T01:08:05.402Z,0.20
2023-05-19T01:10:57.565Z,0.10
2023-05-19T01:13:33.243Z,0.20
2023-05-19T01:18:52.010Z,0.20
2023-05-19T01:22:18.167Z,0.20
2023-05-19T01:25:04.916Z,0.10
2023-05-19T01:27:53.594Z,0.10
2023-05-19T01:31:02.806Z,0.20
2023-05-19T01:33:38.837Z,0.10
2023-05-19T01:36:19.281Z,0.20
2023-05-19T01:38:56.215Z,0.10
2023-05-19T01:41:29.641Z,0.20
2023-05-19T01:44:02.277Z,0.20
2023-05-19T01:46:31.400Z,0.20
2023-05-19T01:49:20.674Z,0.20
2023-05-19T01:51:58.708Z,0.20
2023-05-19T01:54:41.140Z,0.10
2023-05-19T01:57:52.498Z,0.10
2023-05-19T02:01:05.234Z,0.10
2023-05-19T02:04:13.155Z,0.10
2023-05-19T02:06:54.534Z,0.20
2023-05-19T02:09:44.219Z,0.20
2023-05-19T02:12:47.688Z,0.10
2023-05-19T02:15:32.134Z,0.20
2023-05-19T02:18:05.556Z,0.20
2023-05-19T02:20:34.878Z,0.20
2023-05-19T02:23:04.261Z,0.20
2023-05-19T02:25:33.396Z,0.10
2023-05-19T02:28:12.668Z,0.20
2023-05-19T02:30:44.154Z,0.10
2023-05-19T02:33:13.411Z,0.10
2023-05-19T02:35:42.880Z,0.20
2023-05-19T02:38:11.659Z,0.10
2023-05-19T02:40:40.869Z,0.10
2023-05-19T02:43:10.049Z,0.20
2023-05-19T02:45:40.490Z,0.20
2023-05-19T02:48:09.474Z,0.10
2023-05-19T02:50:38.764Z,0.10
2023-05-19T02:53:09.008Z,0.20
2023-05-19T02:55:37.665Z,0.10
2023-05-19T02:58:06.924Z,0.10
2023-05-19T03:00:46.324Z,0.10
2023-05-19T03:03:15.939Z,0.10
2023-05-19T03:05:45.484Z,0.20
2023-05-19T03:08:19.452Z,0.10
2023-05-19T03:10:51.014Z,0.10
2023-05-19T03:13:19.708Z,0.10
2023-05-19T03:15:52.130Z,0.10
2023-05-19T03:18:21.858Z,0.10
2023-05-19T03:20:50.988Z,0.10
2023-05-19T03:23:24.816Z,0.20
2023-05-19T03:25:55.570Z,0.10
2023-05-19T03:28:24.770Z,0.00
2023-05-19T03:30:56.430Z,0.10
2023-05-19T03:33:26.291Z,0.10
2023-05-19T03:35:55.884Z,0.10
2023-05-19T03:38:27.806Z,0.10
2023-05-19T03:41:50.434Z,0.10
2023-05-19T03:44:50.230Z,0.10
2023-05-19T03:47:35.796Z,0.10
2023-05-19T03:50:25.644Z,0.10
2023-05-19T03:52:58.265Z,0.10
2023-05-19T03:55:27.931Z,0.10
2023-05-19T03:57:57.613Z,0.10
2023-05-19T04:00:27.640Z,0.10
2023-05-19T04:02:56.793Z,0.00
2023-05-19T04:05:32.371Z,0.10
2023-05-19T04:08:01.483Z,0.10
2023-05-19T04:10:33.766Z,0.10
2023-05-19T04:13:03.095Z,0.10
2023-05-19T04:15:32.964Z,0.10
2023-05-19T04:18:22.884Z,0.10
2023-05-19T04:21:02.801Z,0.10
2023-05-19T04:24:03.338Z,0.00
2023-05-19T04:26:35.479Z,0.10
2023-05-19T04:29:05.630Z,0.10
2023-05-19T04:31:37.530Z,0.10
2023-05-19T04:34:11.255Z,0.10
2023-05-19T04:36:40.643Z,0.10
2023-05-19T04:39:12.654Z,0.10
2023-05-19T04:41:43.053Z,0.10
2023-05-19T04:44:14.559Z,0.10
2023-05-19T04:46:46.511Z,0.10
2023-05-19T04:49:15.614Z,0.10
2023-05-19T04:51:47.184Z,0.00
2023-05-19T04:54:39.023Z,0.10
2023-05-19T04:57:08.204Z,0.10
2023-05-19T04:59:40.271Z,0.10
2023-05-19T05:02:09.308Z,0.10
2023-05-19T05:04:38.493Z,0.10
2023-05-19T05:07:07.531Z,0.10
2023-05-19T05:09:36.939Z,0.10
2023-05-19T05:12:08.844Z,0.10
2023-05-19T05:14:41.321Z,0.00
2023-05-19T05:17:14.789Z,0.10
2023-05-19T05:19:44.317Z,0.10
2023-05-19T05:22:13.767Z,0.10
2023-05-19T05:24:43.984Z,0.10
2023-05-19T05:27:14.492Z,0.10
2023-05-19T05:29:44.068Z,0.10
2023-05-19T05:32:44.041Z,0.10
2023-05-19T05:35:16.190Z,0.20
2023-05-19T05:38:18.148Z,0.10
2023-05-19T05:41:17.127Z,0.10
2023-05-19T05:44:09.653Z,0.10
2023-05-19T05:46:58.782Z,0.00
2023-05-19T05:49:28.079Z,0.00
2023-05-19T05:52:17.363Z,0.10
2023-05-19T05:54:47.344Z,0.10
2023-05-19T05:57:20.042Z,0.10
2023-05-19T05:59:50.079Z,0.10
2023-05-19T06:02:19.617Z,0.10
2023-05-19T06:04:51.223Z,0.00
2023-05-19T06:07:20.300Z,0.20
2023-05-19T06:09:49.376Z,0.10
2023-05-19T06:12:19.144Z,0.10
2023-05-19T06:14:48.214Z,0.10
2023-05-19T06:17:17.488Z,0.10
2023-05-19T06:19:46.475Z,0.00
2023-05-19T06:22:15.640Z,0.00
2023-05-19T06:24:44.634Z,0.10
2023-05-19T06:27:15.126Z,0.10
2023-05-19T06:29:45.387Z,0.10
2023-05-19T06:32:17.911Z,0.10
2023-05-19T06:34:55.062Z,0.10
2023-05-19T06:37:28.288Z,0.10
2023-05-19T06:39:57.260Z,0.20
2023-05-19T06:42:26.871Z,0.20
2023-05-19T06:44:57.068Z,0.10
2023-05-19T06:47:30.817Z,0.10
2023-05-19T06:50:03.072Z,0.10
2023-05-19T06:52:32.398Z,0.10
2023-05-19T06:55:11.109Z,0.10
2023-05-19T06:57:42.882Z,0.10
2023-05-19T07:00:30.609Z,0.20
2023-05-19T07:03:02.815Z,0.10
2023-05-19T07:05:32.474Z,0.10
2023-05-19T07:08:12.212Z,0.10
2023-05-19T07:10:46.840Z,0.10
2023-05-19T07:13:29.662Z,0.10
2023-05-19T07:15:58.788Z,0.10
2023-05-19T07:18:32.873Z,0.20
2023-05-19T07:21:02.156Z,0.10
2023-05-19T07:23:31.136Z,0.10
2023-05-19T07:26:00.338Z,0.10
2023-05-19T07:28:29.552Z,0.20
2023-05-19T07:30:59.003Z,0.10
2023-05-19T07:33:28.825Z,0.10
2023-05-19T07:36:39.127Z,0.10
2023-05-19T07:39:08.601Z,0.10
2023-05-19T07:41:41.438Z,0.10
2023-05-19T07:44:11.534Z,0.10
2023-05-19T07:46:40.832Z,0.10
2023-05-19T07:49:09.988Z,0.10
2023-05-19T07:51:43.278Z,0.20
2023-05-19T07:54:32.322Z,0.10
2023-05-19T07:57:01.222Z,0.10
2023-05-19T07:59:30.506Z,0.10
2023-05-19T08:02:11.033Z,0.10
2023-05-19T08:04:40.396Z,0.10
2023-05-19T08:07:09.697Z,0.20
2023-05-19T08:09:38.934Z,0.10
2023-05-19T08:12:08.000Z,0.10
2023-05-19T08:14:47.955Z,0.10
2023-05-19T08:17:20.536Z,0.10
2023-05-19T08:19:49.552Z,0.10
2023-05-19T08:22:18.693Z,0.10
2023-05-19T08:24:50.713Z,0.00
2023-05-19T08:27:19.593Z,0.10
2023-05-19T08:29:56.551Z,0.10
2023-05-19T08:32:25.953Z,0.10
2023-05-19T08:34:56.478Z,0.20
2023-05-19T08:37:25.693Z,0.10
2023-05-19T08:39:54.899Z,0.20
2023-05-19T08:42:24.656Z,0.00
2023-05-19T08:45:03.415Z,0.10
2023-05-19T08:47:33.320Z,0.10
2023-05-19T08:50:11.117Z,0.10
2023-05-19T08:53:32.592Z,0.10
2023-05-19T08:56:10.973Z,0.10
2023-05-19T08:59:01.585Z,0.10
2023-05-19T09:01:31.516Z,0.10
2023-05-19T09:04:00.742Z,0.10
2023-05-19T09:06:33.456Z,0.10
2023-05-19T09:09:02.566Z,0.10
2023-05-19T09:11:36.773Z,0.10
2023-05-19T09:14:06.819Z,0.10
2023-05-19T09:16:40.347Z,0.10
2023-05-19T09:19:18.589Z,0.10
2023-05-19T09:21:50.508Z,0.10
2023-05-19T09:24:39.616Z,0.10
2023-05-19T09:27:09.142Z,0.10
2023-05-19T09:29:52.014Z,0.10
2023-05-19T09:33:10.865Z,0.10
2023-05-19T09:36:24.495Z,0.10
2023-05-19T09:38:59.433Z,0.10
2023-05-19T09:41:29.723Z,0.10
2023-05-19T09:43:59.065Z,0.00
2023-05-19T09:46:31.611Z,0.10
2023-05-19T09:49:10.402Z,0.10
2023-05-19T09:51:39.733Z,0.10
2023-05-19T09:54:11.226Z,0.10
2023-05-19T09:56:40.609Z,0.10
2023-05-19T09:59:09.546Z,0.20
2023-05-19T10:01:48.523Z,0.10
2023-05-19T10:04:18.317Z,0.20
2023-05-19T10:06:47.774Z,0.10
2023-05-19T10:09:23.627Z,0.20
2023-05-19T10:12:01.764Z,0.00
2023-05-19T10:14:31.723Z,0.20
2023-05-19T10:17:07.574Z,0.10
2023-05-19T10:19:38.535Z,0.10
2023-05-19T10:22:11.185Z,0.00
2023-05-19T10:25:00.815Z,0.20
2023-05-19T10:27:31.264Z,0.10
2023-05-19T10:30:09.474Z,0.10
2023-05-19T10:32:50.424Z,0.20
2023-05-19T10:35:36.069Z,0.10
2023-05-19T10:38:52.527Z,0.10
2023-05-19T10:41:56.244Z,0.10
2023-05-19T10:44:50.027Z,0.10
2023-05-19T10:47:28.592Z,0.10
2023-05-19T10:49:57.705Z,0.10
2023-05-19T10:52:32.087Z,0.10
2023-05-19T10:55:03.424Z,0.20
2023-05-19T10:57:35.770Z,0.20
2023-05-19T11:00:27.252Z,0.20
2023-05-19T11:03:21.574Z,0.20
2023-05-19T11:05:53.453Z,0.10
2023-05-19T11:08:34.827Z,0.10
2023-05-19T11:11:23.365Z,0.10
2023-05-19T11:14:01.433Z,0.20
2023-05-19T11:16:31.489Z,0.10
2023-05-19T11:19:30.334Z,0.10
2023-05-19T11:22:11.002Z,0.10
2023-05-19T11:24:53.390Z,0.10
2023-05-19T11:27:52.617Z,0.10
2023-05-19T11:31:22.020Z,0.10
2023-05-19T11:34:42.462Z,0.10
2023-05-19T11:37:12.516Z,0.10
2023-05-19T11:39:42.131Z,0.10
2023-05-19T11:42:12.259Z,0.10
2023-05-19T11:44:42.524Z,0.10
2023-05-19T11:47:12.343Z,0.20
2023-05-19T11:49:44.636Z,0.10
2023-05-19T11:52:46.156Z,0.10
2023-05-19T11:55:27.379Z,0.10
2023-05-19T11:58:05.006Z,0.20
2023-05-19T12:00:51.967Z,0.10
2023-05-19T12:03:27.563Z,0.10
2023-05-19T12:06:18.765Z,0.10
2023-05-19T12:08:53.376Z,0.10
2023-05-19T12:11:22.743Z,0.10
2023-05-19T12:14:04.180Z,0.10
2023-05-19T12:16:38.029Z,0.20
2023-05-19T12:19:30.718Z,0.10
2023-05-19T12:22:00.245Z,0.10
2023-05-19T12:24:32.774Z,0.10
2023-05-19T12:27:24.806Z,0.10
2023-05-19T12:30:14.294Z,0.10
2023-05-19T12:33:03.806Z,0.10
2023-05-19T12:35:38.998Z,0.20
2023-05-19T12:38:11.093Z,0.10
2023-05-19T12:40:40.675Z,0.10
2023-05-19T12:43:20.142Z,0.10
2023-05-19T12:45:50.053Z,0.10
2023-05-19T12:48:23.754Z,0.10
2023-05-19T12:50:56.642Z,0.10
2023-05-19T12:53:32.296Z,0.10
2023-05-19T12:56:01.180Z,0.10
2023-05-19T12:58:30.393Z,0.10
2023-05-19T13:01:01.573Z,0.10
2023-05-19T13:03:51.385Z,0.20
2023-05-19T13:06:23.809Z,0.10
2023-05-19T13:08:53.014Z,0.10
2023-05-19T13:11:22.196Z,0.20
2023-05-19T13:13:56.965Z,0.20
2023-05-19T13:16:26.166Z,0.10
2023-05-19T13:19:17.691Z,0.10
2023-05-19T13:22:07.201Z,0.20
2023-05-19T13:24:54.329Z,0.10
2023-05-19T13:28:08.274Z,0.10
2023-05-19T13:31:00.951Z,0.20
2023-05-19T13:34:21.017Z,0.10
2023-05-19T13:36:50.611Z,0.10
2023-05-19T13:39:22.383Z,0.20
2023-05-19T13:41:54.448Z,0.10
2023-05-19T13:44:26.805Z,0.20
2023-05-19T13:47:16.337Z,0.20
2023-05-19T13:49:45.843Z,0.20
2023-05-19T13:52:18.083Z,0.20
2023-05-19T13:54:47.156Z,0.20
2023-05-19T13:57:19.554Z,0.20
2023-05-19T14:00:00.974Z,0.20
2023-05-19T14:02:34.792Z,0.20
2023-05-19T14:05:17.197Z,0.20
2023-05-19T14:07:46.489Z,0.20
2023-05-19T14:10:19.991Z,0.20
2023-05-19T14:13:12.425Z,0.10
2023-05-19T14:16:18.470Z,0.10
2023-05-19T14:18:50.824Z,0.30
2023-05-19T14:21:20.936Z,0.30
2023-05-19T14:23:51.261Z,0.20
2023-05-19T14:26:20.885Z,0.20
2023-05-19T14:28:52.844Z,0.20
2023-05-19T14:31:22.822Z,0.20
2023-05-19T14:33:52.528Z,0.40
2023-05-19T14:36:28.425Z,0.30
2023-05-19T14:38:57.798Z,0.20
2023-05-19T14:42:05.981Z,0.30
2023-05-19T14:44:35.173Z,0.30
2023-05-19T14:47:05.196Z,0.40
2023-05-19T14:49:34.430Z,0.30
2023-05-19T14:52:03.531Z,0.30
2023-05-19T14:55:02.485Z,0.40
2023-05-19T14:57:35.346Z,0.30
2023-05-19T15:00:04.281Z,0.20
2023-05-19T15:02:55.171Z,0.30
2023-05-19T15:05:26.003Z,0.30
2023-05-19T15:08:11.901Z,0.30
2023-05-19T15:10:44.725Z,0.30
2023-05-19T15:13:17.172Z,0.20
2023-05-19T15:16:22.241Z,0.20
2023-05-19T15:18:48.748Z,0.20
2023-05-19T15:22:07.525Z,0.20
2023-05-19T15:25:36.911Z,0.20
2023-05-19T15:28:29.559Z,0.20
2023-05-19T15:31:02.881Z,0.20
2023-05-19T15:33:34.574Z,0.20
2023-05-19T15:36:04.007Z,0.30
2023-05-19T15:39:07.463Z,0.30
2023-05-19T15:41:56.916Z,0.10
2023-05-19T15:44:28.296Z,0.20
2023-05-19T15:46:58.374Z,0.30
2023-05-19T15:49:33.839Z,0.30
2023-05-19T15:52:35.612Z,0.30
2023-05-19T15:55:13.173Z,0.30
2023-05-19T15:57:42.154Z,0.20
2023-05-19T16:00:28.265Z,0.20
2023-05-19T16:03:32.265Z,0.30
2023-05-19T16:06:20.603Z,0.20
2023-05-19T16:08:49.767Z,0.30
2023-05-19T16:11:32.127Z,0.20
2023-05-19T16:14:27.634Z,0.20
2023-05-19T16:17:57.596Z,0.20
2023-05-19T16:20:30.877Z,0.20
2023-05-19T16:23:00.139Z,0.20
2023-05-19T16:25:29.359Z,0.20
2023-05-19T16:28:02.523Z,0.30
2023-05-19T16:30:32.331Z,0.30
2023-05-19T16:33:02.119Z,0.30
2023-05-19T16:35:34.633Z,0.20
2023-05-19T16:38:03.974Z,0.20
2023-05-19T16:40:34.568Z,0.30
2023-05-19T16:43:03.806Z,0.30
2023-05-19T16:45:34.456Z,0.20
2023-05-19T16:48:07.008Z,0.30
2023-05-19T16:50:37.479Z,0.30
2023-05-19T16:53:06.978Z,0.20
2023-05-19T16:55:39.152Z,0.30
2023-05-19T16:58:08.296Z,0.30
2023-05-19T17:00:47.385Z,0.20
2023-05-19T17:03:16.543Z,0.30
2023-05-19T17:05:45.881Z,0.80
2023-05-19T17:08:14.984Z,0.30
2023-05-19T17:11:44.342Z,0.30
2023-05-19T17:15:13.984Z,0.30
2023-05-19T17:18:27.350Z,0.50
2023-05-19T17:21:55.686Z,0.40
2023-05-19T17:25:24.980Z,0.30
2023-05-19T17:28:50.421Z,0.40
2023-05-19T17:32:19.809Z,0.30
2023-05-19T17:35:50.457Z,0.40
2023-05-19T17:39:09.488Z,0.40
2023-05-19T17:42:38.891Z,0.40
2023-05-19T17:46:08.448Z,0.40
2023-05-19T17:49:37.828Z,0.30
2023-05-19T17:52:47.906Z,0.50
2023-05-19T17:56:17.331Z,0.40
2023-05-19T17:59:13.739Z,0.40
2023-05-19T18:02:34.706Z,0.30
2023-05-19T18:05:57.332Z,0.70
2023-05-19T18:09:17.265Z,0.30
2023-05-19T18:11:57.098Z,0.30
2023-05-19T18:14:28.856Z,0.40
2023-05-19T18:17:39.437Z,0.40
2023-05-19T18:20:39.507Z,0.40
2023-05-19T18:23:28.898Z,0.40
2023-05-19T18:26:10.261Z,0.40
2023-05-19T18:28:48.472Z,0.40
2023-05-19T18:31:43.124Z,0.40
2023-05-19T18:34:12.339Z,0.30
2023-05-19T18:36:43.813Z,0.40
2023-05-19T18:39:13.010Z,0.30
2023-05-19T18:42:42.193Z,0.30
2023-05-19T18:45:54.565Z,0.40
2023-05-19T18:48:37.231Z,0.30
2023-05-19T18:51:26.183Z,0.30
2023-05-19T18:54:13.983Z,0.30
2023-05-19T18:57:03.406Z,0.40
2023-05-19T18:59:56.843Z,0.30
2023-05-19T19:03:15.957Z,0.30
2023-05-19T19:06:35.596Z,0.30
2023-05-19T19:09:50.258Z,0.30
2023-05-19T19:13:19.452Z,0.40
2023-05-19T19:15:52.301Z,0.30
2023-05-19T19:18:21.330Z,0.40
2023-05-19T19:20:50.698Z,0.40
2023-05-19T19:23:22.982Z,0.30
2023-05-19T19:25:57.652Z,0.50
2023-05-19T19:28:29.400Z,0.30
2023-05-19T19:31:01.422Z,0.50
2023-05-19T19:34:12.563Z,0.50
2023-05-19T19:36:42.469Z,0.50
2023-05-19T19:39:17.954Z,0.60
2023-05-19T19:41:47.159Z,0.70
2023-05-19T19:44:39.315Z,0.50
2023-05-19T19:47:13.017Z,0.60
2023-05-19T19:50:32.556Z,0.50
2023-05-19T19:53:17.582Z,0.40
2023-05-19T19:56:46.090Z,0.50
2023-05-19T20:00:15.637Z,0.40
2023-05-19T20:03:27.998Z,0.40
2023-05-19T20:06:41.161Z,0.30
2023-05-19T20:10:00.554Z,0.40
2023-05-19T20:13:30.742Z,0.50
2023-05-19T20:17:01.669Z,0.30
2023-05-19T20:20:15.948Z,0.40
2023-05-19T20:22:54.509Z,0.40
2023-05-19T20:26:23.995Z,0.40
2023-05-19T20:29:53.496Z,0.40
2023-05-19T20:32:40.415Z,0.40
2023-05-19T20:35:34.494Z,0.50
2023-05-19T20:38:37.446Z,0.40
2023-05-19T20:41:43.678Z,0.40
2023-05-19T20:44:42.223Z,0.50
2023-05-19T20:47:39.872Z,0.40
2023-05-19T20:51:09.328Z,0.40
2023-05-19T20:54:38.620Z,0.50
2023-05-19T20:57:51.392Z,0.40
2023-05-19T21:01:20.124Z,0.50
2023-05-19T21:04:49.737Z,0.40
2023-05-19T21:07:49.208Z,0.40
2023-05-19T21:10:50.317Z,0.40
2023-05-19T21:13:44.601Z,0.30
2023-05-19T21:17:03.934Z,0.50
2023-05-19T21:20:13.685Z,0.40
2023-05-19T21:23:22.990Z,0.30
2023-05-19T21:25:52.435Z,0.30
2023-05-19T21:28:22.373Z,0.40
2023-05-19T21:30:51.763Z,0.40
2023-05-19T21:33:41.345Z,0.40
2023-05-19T21:36:13.942Z,0.30
2023-05-19T21:38:44.206Z,0.20
2023-05-19T21:41:13.436Z,0.30
2023-05-19T21:43:45.298Z,0.40
2023-05-19T21:46:49.209Z,0.20
2023-05-19T21:49:18.877Z,0.30
2023-05-19T21:52:07.552Z,0.30
2023-05-19T21:55:26.984Z,0.30
2023-05-19T21:58:20.178Z,0.30
2023-05-19T22:01:28.830Z,0.30
2023-05-19T22:04:28.443Z,0.30
2023-05-19T22:06:59.388Z,0.30
2023-05-19T22:09:29.059Z,0.60
2023-05-19T22:12:09.880Z,0.40
2023-05-19T22:15:02.133Z,0.30
2023-05-19T22:17:34.432Z,0.40
2023-05-19T22:20:03.791Z,0.30
2023-05-19T22:22:37.933Z,0.30
2023-05-19T22:25:08.880Z,0.40
2023-05-19T22:28:09.771Z,0.30
2023-05-19T22:30:41.281Z,0.30
2023-05-19T22:33:30.696Z,0.20
2023-05-19T22:36:06.086Z,0.30
2023-05-19T22:39:25.566Z,0.30
2023-05-19T22:42:28.030Z,0.30
2023-05-19T22:45:20.877Z,0.30
2023-05-19T22:47:53.055Z,0.30
2023-05-19T22:50:45.913Z,0.30
2023-05-19T22:54:06.585Z,0.20
2023-05-19T22:57:16.331Z,0.30
2023-05-19T22:59:55.544Z,0.30
2023-05-19T23:02:41.441Z,0.20
2023-05-19T23:05:13.777Z,0.30
2023-05-19T23:08:05.846Z,0.30
2023-05-19T23:10:37.964Z,0.20
2023-05-19T23:13:39.607Z,0.20
2023-05-19T23:16:08.900Z,0.20
2023-05-19T23:18:58.837Z,0.20
2023-05-19T23:21:28.250Z,0.20
2023-05-19T23:24:07.946Z,0.20
2023-05-19T23:26:47.864Z,0.20
2023-05-19T23:29:29.939Z,0.20
2023-05-19T23:31:59.099Z,0.20
2023-05-19T23:34:28.240Z,0.20
2023-05-19T23:36:57.853Z,0.20
2023-05-19T23:39:39.312Z,0.20
2023-05-19T23:42:14.368Z,0.20
2023-05-19T23:44:43.482Z,0.20
2023-05-19T23:47:52.905Z,0.30
2023-05-19T23:50:52.412Z,0.20
2023-05-19T23:53:24.869Z,0.20
2023-05-19T23:55:54.969Z,0.20
2023-05-19T23:58:49.985Z,0.20
